My Profile
  1. Member Settings
  2. My Devices
  3. Sign Out
        More Settings
      Elev 120 ft, 64.130 °N 21.901 °W

      Reykjavík, IS

      Summary

      Temperature (°F)MaxAverageMin
      Max Temperature4428.3516
      Avg Temperature4225.0312
      Min Temperature4021.618
      Precipitation (in)MaxAverageMinSum
      Precipitation0000
      Dew Point (°F)MaxAverageMin
      Dew Point36.1317.224.88
      Wind (mph)MaxAverageMin
      Wind2212.062
      Gust Wind---
      Sea Level Pressure (in)MaxAverageMin
      Sea Level Pressure---

      Daily Observations

      DateTemp High/LowDew Pt High/LowHumidityWindMax WindWind GustPressurePrecip.Condition
      12/1/2022 44 °F / 40 °F 36 °F / 33 °F 76 % 21 mph - - 0 in
      12/2/2022 42 °F / 39 °F 38 °F / 33 °F 84 % 14 mph - - 0 in
      12/3/2022 38 °F / 32 °F 35 °F / 26 °F 87 % 6 mph - - 0 in
      12/4/2022 37 °F / 33 °F 36 °F / 30 °F 92 % 6 mph - - 0 in
      12/5/2022 36 °F / 29 °F 35 °F / 25 °F 93 % 5 mph - - 0 in
      12/6/2022 35 °F / 31 °F 33 °F / 26 °F 89 % 2 mph - - 0 in
      12/7/2022 35 °F / 25 °F 33 °F / 20 °F 83 % 7 mph - - 0 in
      12/8/2022 31 °F / 21 °F 21 °F / 13 °F 68 % 21 mph - - 0 in
      12/9/2022 33 °F / 28 °F 20 °F / 17 °F 61 % 9 mph - - 0 in
      12/10/2022 28 °F / 22 °F 18 °F / 12 °F 68 % 6 mph - - 0 in
      12/11/2022 29 °F / 22 °F 18 °F / 12 °F 65 % 10 mph - - 0 in
      12/12/2022 26 °F / 20 °F 19 °F / 15 °F 75 % 7 mph - - 0 in
      12/13/2022 24 °F / 18 °F 15 °F / 9 °F 68 % 6 mph - - 0 in
      12/14/2022 20 °F / 16 °F 12 °F / 6 °F 67 % 6 mph - - 0 in
      12/15/2022 22 °F / 16 °F 10 °F / 6 °F 64 % 16 mph - - 0 in
      12/16/2022 22 °F / 14 °F 20 °F / 2 °F 63 % 14 mph - - 0 in
      12/17/2022 27 °F / 23 °F 24 °F / 19 °F 86 % 20 mph - - 0 in
      12/18/2022 25 °F / 12 °F 15 °F / 1 °F 65 % 21 mph - - 0 in
      12/19/2022 27 °F / 14 °F 15 °F / 5 °F 62 % 17 mph - - 0 in
      12/20/2022 31 °F / 25 °F 19 °F / 14 °F 63 % 22 mph - - 0 in
      12/21/2022 31 °F / 28 °F 21 °F / 13 °F 62 % 18 mph - - 0 in
      12/22/2022 28 °F / 18 °F 12 °F / 8 °F 59 % 10 mph - - 0 in
      12/23/2022 21 °F / 18 °F 12 °F / 8 °F 64 % 10 mph - - 0 in
      12/24/2022 22 °F / 17 °F 19 °F / 8 °F 79 % 14 mph - - 0 in
      12/25/2022 30 °F / 21 °F 20 °F / 15 °F 71 % 17 mph - - 0 in
      12/26/2022 23 °F / 14 °F 17 °F / 5 °F 68 % 13 mph - - 0 in
      12/27/2022 28 °F / 23 °F 25 °F / 9 °F 84 % 13 mph - - 0 in
      12/28/2022 22 °F / 16 °F 15 °F / 12 °F 78 % 12 mph - - 0 in
      12/29/2022 20 °F / 14 °F 13 °F / 6 °F 70 % 10 mph - - 0 in
      12/30/2022 16 °F / 8 °F 9 °F / 1 °F 74 % 7 mph - - 0 in
      12/31/2022 26 °F / 13 °F 22 °F / 2 °F 79 % 14 mph - - 0 in
      essentialaccessibility.com
      We recognize our responsibility to use data and technology for good. We may use or share your data with our data vendors. Take control of your data.
      Glossary